createdAt,value
2018-05-10T00:00:46.170Z,99.90
2018-05-10T00:03:14.004Z,99.90
2018-05-10T00:05:41.483Z,99.90
2018-05-10T00:08:09.751Z,99.90
2018-05-10T00:10:37.703Z,99.90
2018-05-10T00:13:05.186Z,99.90
2018-05-10T00:15:33.317Z,99.90
2018-05-10T00:18:00.819Z,99.90
2018-05-10T00:20:28.327Z,99.90
2018-05-10T00:22:56.656Z,99.90
2018-05-10T00:25:24.560Z,99.90
2018-05-10T00:27:56.310Z,99.90
2018-05-10T00:30:23.798Z,99.90
2018-05-10T00:32:51.460Z,99.90
2018-05-10T00:35:20.283Z,99.90
2018-05-10T00:37:47.830Z,99.90
2018-05-10T00:40:15.349Z,99.90
2018-05-10T00:42:42.812Z,99.90
2018-05-10T00:45:12.211Z,99.90
2018-05-10T00:47:39.729Z,99.90
2018-05-10T00:50:07.997Z,99.90
2018-05-10T00:52:36.249Z,99.90
2018-05-10T00:55:03.715Z,99.90
2018-05-10T00:57:40.749Z,99.90
2018-05-10T01:00:08.238Z,99.90
2018-05-10T01:02:37.432Z,99.90
2018-05-10T01:05:05.603Z,99.90
2018-05-10T01:07:34.841Z,99.90
2018-05-10T01:10:02.364Z,99.90
2018-05-10T01:12:29.843Z,99.90
2018-05-10T01:14:57.364Z,99.90
2018-05-10T01:17:28.969Z,99.90
2018-05-10T01:19:56.524Z,99.90
2018-05-10T01:22:23.990Z,99.90
2018-05-10T01:24:52.253Z,99.90
2018-05-10T01:27:24.394Z,99.90
2018-05-10T01:29:51.889Z,99.90
2018-05-10T01:32:19.344Z,99.90
2018-05-10T01:34:59.339Z,99.90
2018-05-10T01:37:27.736Z,99.90
2018-05-10T01:39:55.220Z,99.90
2018-05-10T01:42:22.738Z,99.90
2018-05-10T01:44:50.232Z,99.90
2018-05-10T01:47:18.521Z,99.90
2018-05-10T01:49:46.020Z,99.90
2018-05-10T01:52:13.515Z,99.90
2018-05-10T01:54:42.495Z,99.90
2018-05-10T01:57:09.988Z,99.90
2018-05-10T01:59:37.573Z,99.90
2018-05-10T02:02:05.049Z,99.90
2018-05-10T02:04:32.522Z,99.90
2018-05-10T02:07:00.798Z,99.90
2018-05-10T02:09:29.100Z,99.90
2018-05-10T02:11:56.598Z,99.90
2018-05-10T02:14:24.130Z,99.90
2018-05-10T02:16:51.589Z,99.90
2018-05-10T02:19:20.764Z,99.90
2018-05-10T02:21:48.240Z,99.90
2018-05-10T02:24:15.729Z,99.90
2018-05-10T02:26:43.206Z,99.90
2018-05-10T02:29:14.303Z,99.90
2018-05-10T02:31:41.741Z,99.90
2018-05-10T02:34:09.233Z,99.90
2018-05-10T02:36:36.718Z,99.90
2018-05-10T02:39:04.826Z,99.90
2018-05-10T02:41:32.309Z,99.90
2018-05-10T02:43:59.766Z,99.90
2018-05-10T02:46:27.259Z,99.90
2018-05-10T02:48:54.721Z,99.90
2018-05-10T02:51:22.230Z,99.90
2018-05-10T02:53:50.827Z,99.90
2018-05-10T02:56:18.276Z,99.90
2018-05-10T02:58:50.031Z,99.90
2018-05-10T03:01:18.391Z,99.90
2018-05-10T03:03:45.887Z,99.90
2018-05-10T03:06:13.346Z,99.90
2018-05-10T03:08:40.803Z,99.90
2018-05-10T03:11:08.294Z,99.90
2018-05-10T03:13:35.785Z,99.90
2018-05-10T03:16:03.303Z,99.90
2018-05-10T03:18:31.742Z,99.90
2018-05-10T03:20:59.989Z,99.90
2018-05-10T03:23:27.465Z,99.90
2018-05-10T03:25:55.717Z,99.90
2018-05-10T03:28:23.187Z,99.90
2018-05-10T03:30:51.409Z,99.90
2018-05-10T03:33:18.958Z,99.90
2018-05-10T03:35:46.373Z,99.90
2018-05-10T03:38:14.753Z,99.90
2018-05-10T03:40:42.273Z,99.90
2018-05-10T03:43:11.073Z,99.90
2018-05-10T03:45:38.534Z,99.90
2018-05-10T03:48:07.953Z,99.90
2018-05-10T03:50:35.421Z,99.90
2018-05-10T03:53:02.926Z,99.90
2018-05-10T03:55:30.421Z,99.90
2018-05-10T03:57:57.887Z,99.90
2018-05-10T04:00:29.531Z,99.90
2018-05-10T04:06:19.805Z,99.90
2018-05-10T04:08:59.058Z,99.90
2018-05-10T04:11:27.544Z,99.90
2018-05-10T04:13:55.359Z,99.90
2018-05-10T04:16:25.855Z,99.90
2018-05-10T04:18:53.340Z,99.90
2018-05-10T04:21:20.881Z,99.90
2018-05-10T04:23:48.340Z,99.90
2018-05-10T04:26:15.824Z,99.90
2018-05-10T04:28:43.279Z,99.90
2018-05-10T04:31:10.769Z,99.90
2018-05-10T04:33:39.196Z,99.90
2018-05-10T04:36:07.449Z,99.90
2018-05-10T04:38:34.948Z,99.90
2018-05-10T04:41:03.695Z,99.90
2018-05-10T04:43:31.223Z,99.90
2018-05-10T04:46:04.566Z,99.90
2018-05-10T04:48:32.058Z,99.90
2018-05-10T04:50:59.563Z,99.90
2018-05-10T04:53:27.810Z,99.90
2018-05-10T04:55:55.295Z,99.90
2018-05-10T04:58:22.773Z,99.90
2018-05-10T05:00:54.210Z,99.90
2018-05-10T05:03:21.668Z,99.90
2018-05-10T05:05:49.187Z,99.90
2018-05-10T05:08:16.718Z,99.90
2018-05-10T05:10:45.989Z,99.90
2018-05-10T05:13:13.453Z,99.90
2018-05-10T05:15:40.976Z,99.90
2018-05-10T05:18:08.505Z,99.90
2018-05-10T05:20:35.964Z,99.90
2018-05-10T05:23:03.457Z,99.90
2018-05-10T05:25:30.916Z,99.90
2018-05-10T05:27:58.677Z,99.90
2018-05-10T05:30:26.168Z,99.90
2018-05-10T05:32:54.410Z,99.90
2018-05-10T05:35:22.127Z,99.70
2018-05-10T05:37:50.164Z,99.30
2018-05-10T05:40:17.637Z,99.10
2018-05-10T05:42:45.217Z,98.00
2018-05-10T05:45:12.695Z,97.50
2018-05-10T05:47:40.868Z,97.30
2018-05-10T05:50:08.361Z,97.10
2018-05-10T05:52:35.842Z,96.70
2018-05-10T05:55:03.314Z,95.40
2018-05-10T05:57:30.831Z,94.00
2018-05-10T05:59:58.319Z,93.50
2018-05-10T06:02:32.787Z,92.70
2018-05-10T06:05:01.601Z,90.80
2018-05-10T06:07:31.547Z,88.90
2018-05-10T06:09:59.022Z,88.80
2018-05-10T06:12:27.290Z,85.50
2018-05-10T06:14:56.444Z,84.90
2018-05-10T06:17:27.207Z,84.90
2018-05-10T06:19:54.710Z,85.70
2018-05-10T06:22:22.207Z,85.40
2018-05-10T06:24:51.516Z,90.50
2018-05-10T06:27:18.882Z,90.40
2018-05-10T06:29:46.341Z,90.80
2018-05-10T06:32:13.854Z,91.60
2018-05-10T06:34:41.320Z,92.50
2018-05-10T06:37:08.782Z,93.20
2018-05-10T06:39:36.269Z,93.60
2018-05-10T06:42:04.271Z,95.00
2018-05-10T06:44:31.764Z,96.00
2018-05-10T06:46:59.257Z,96.50
2018-05-10T06:49:26.735Z,96.60
2018-05-10T06:51:54.240Z,97.00
2018-05-10T06:54:21.724Z,97.20
2018-05-10T06:56:49.184Z,97.70
2018-05-10T06:59:16.702Z,97.70
2018-05-10T07:01:44.559Z,98.30
2018-05-10T07:04:24.300Z,98.20
2018-05-10T07:06:51.784Z,98.80
2018-05-10T07:09:20.141Z,98.30
2018-05-10T07:11:47.575Z,97.90
2018-05-10T07:14:15.796Z,98.10
2018-05-10T07:16:44.513Z,97.70
2018-05-10T07:19:11.996Z,97.70
2018-05-10T07:21:40.296Z,97.50
2018-05-10T07:24:08.195Z,97.60
2018-05-10T07:26:35.679Z,97.80
2018-05-10T07:29:03.200Z,98.30
2018-05-10T07:31:30.940Z,97.90
2018-05-10T07:34:02.337Z,97.80
2018-05-10T07:36:29.803Z,97.30
2018-05-10T07:38:57.695Z,96.90
2018-05-10T07:41:25.187Z,97.20
2018-05-10T07:43:52.701Z,96.40
2018-05-10T07:46:20.162Z,97.30
2018-05-10T07:48:50.860Z,96.80
2018-05-10T07:51:18.368Z,96.30
2018-05-10T07:53:46.397Z,96.00
2018-05-10T07:56:13.890Z,95.80
2018-05-10T07:58:41.702Z,96.20
2018-05-10T08:01:09.171Z,96.90
2018-05-10T08:03:36.691Z,97.30
2018-05-10T08:06:04.188Z,97.30
2018-05-10T08:08:32.938Z,97.40
2018-05-10T08:11:01.210Z,96.50
2018-05-10T08:13:28.667Z,96.70
2018-05-10T08:15:56.197Z,96.60
2018-05-10T08:18:23.687Z,95.90
2018-05-10T08:20:51.153Z,95.90
2018-05-10T08:23:18.653Z,95.90
2018-05-10T08:25:46.124Z,95.70
2018-05-10T08:28:14.065Z,95.00
2018-05-10T08:30:41.571Z,95.00
2018-05-10T08:33:09.477Z,94.40
2018-05-10T08:35:36.965Z,94.10
2018-05-10T08:38:04.569Z,93.60
2018-05-10T08:40:32.015Z,92.30
2018-05-10T08:42:59.540Z,92.80
2018-05-10T08:45:27.606Z,91.40
2018-05-10T08:47:55.101Z,92.00
2018-05-10T08:50:24.000Z,91.80
2018-05-10T08:52:51.505Z,91.70
2018-05-10T08:55:18.974Z,91.60
2018-05-10T08:57:46.457Z,88.20
2018-05-10T09:00:13.934Z,90.20
2018-05-10T09:02:42.806Z,89.60
2018-05-10T09:05:10.376Z,89.60
2018-05-10T09:07:37.748Z,89.40
2018-05-10T09:10:05.225Z,86.60
2018-05-10T09:12:34.911Z,86.20
2018-05-10T09:15:02.399Z,83.00
2018-05-10T09:17:30.419Z,83.50
2018-05-10T09:19:59.570Z,83.60
2018-05-10T09:22:28.112Z,82.70
2018-05-10T09:24:56.501Z,82.50
2018-05-10T09:27:23.958Z,81.00
2018-05-10T09:29:51.459Z,81.80
2018-05-10T09:32:19.942Z,79.40
2018-05-10T09:34:47.652Z,79.70
2018-05-10T09:37:19.401Z,76.90
2018-05-10T09:39:46.868Z,73.90
2018-05-10T09:42:14.709Z,74.30
2018-05-10T09:44:42.203Z,74.40
2018-05-10T09:47:10.615Z,73.20
2018-05-10T09:49:38.575Z,72.90
2018-05-10T09:52:09.571Z,72.70
2018-05-10T09:54:37.481Z,73.00
2018-05-10T09:57:06.588Z,70.80
2018-05-10T09:59:34.049Z,70.70
2018-05-10T10:02:01.542Z,70.10
2018-05-10T10:04:29.937Z,70.30
2018-05-10T10:07:05.136Z,70.80
2018-05-10T10:09:34.218Z,65.90
2018-05-10T10:12:01.703Z,64.40
2018-05-10T10:14:29.960Z,63.70
2018-05-10T10:16:58.184Z,63.20
2018-05-10T10:19:30.965Z,63.70
2018-05-10T10:21:58.420Z,63.00
2018-05-10T10:24:27.861Z,64.50
2018-05-10T10:26:55.393Z,64.50
2018-05-10T10:29:22.848Z,63.50
2018-05-10T10:31:51.094Z,60.30
2018-05-10T10:34:18.584Z,60.20
2018-05-10T10:36:46.039Z,59.30
2018-05-10T10:39:16.512Z,60.80
2018-05-10T10:41:44.009Z,58.90
2018-05-10T10:44:11.472Z,57.60
2018-05-10T10:46:38.953Z,56.60
2018-05-10T10:49:06.428Z,55.60
2018-05-10T10:51:37.804Z,56.10
2018-05-10T10:54:05.284Z,54.00
2018-05-10T10:56:32.801Z,54.60
2018-05-10T10:59:00.258Z,55.90
2018-05-10T11:01:27.761Z,54.90
2018-05-10T11:03:55.200Z,54.30
2018-05-10T11:06:23.388Z,56.90
2018-05-10T11:08:50.970Z,63.70
2018-05-10T11:11:19.548Z,69.30
2018-05-10T11:13:47.036Z,69.30
2018-05-10T11:16:14.611Z,71.30
2018-05-10T11:18:42.094Z,72.90
2018-05-10T11:21:09.573Z,75.00
2018-05-10T11:23:42.352Z,76.60
2018-05-10T11:26:09.820Z,77.40
2018-05-10T11:28:37.503Z,78.60
2018-05-10T11:31:04.974Z,79.80
2018-05-10T11:33:33.415Z,80.60
2018-05-10T11:36:02.301Z,82.60
2018-05-10T11:38:29.783Z,82.60
2018-05-10T11:40:58.606Z,83.10
2018-05-10T11:43:26.654Z,83.50
2018-05-10T11:45:54.160Z,83.10
2018-05-10T11:48:22.209Z,84.60
2018-05-10T11:50:50.439Z,84.70
2018-05-10T11:53:18.031Z,84.50
2018-05-10T11:55:45.512Z,83.30
2018-05-10T11:58:13.001Z,83.50
2018-05-10T12:00:40.501Z,84.60
2018-05-10T12:03:07.961Z,83.70
2018-05-10T12:05:36.276Z,83.60
2018-05-10T12:08:06.921Z,83.80
2018-05-10T12:10:34.417Z,87.00
2018-05-10T12:13:02.113Z,89.20
2018-05-10T12:15:29.707Z,90.10
2018-05-10T12:17:57.466Z,90.00
2018-05-10T12:20:25.698Z,90.80
2018-05-10T12:22:53.140Z,91.10
2018-05-10T12:25:20.933Z,91.10
2018-05-10T12:27:48.388Z,91.40
2018-05-10T12:30:16.441Z,91.70
2018-05-10T12:32:44.680Z,93.00
2018-05-10T12:35:13.068Z,94.20
2018-05-10T12:37:40.604Z,97.20
2018-05-10T12:40:12.244Z,99.70
2018-05-10T12:42:40.577Z,99.90
2018-05-10T12:45:09.241Z,99.90
2018-05-10T12:47:37.766Z,99.90
2018-05-10T12:50:06.312Z,99.90
2018-05-10T12:52:35.176Z,99.90
2018-05-10T12:55:07.093Z,99.90
2018-05-10T12:57:35.188Z,99.90
2018-05-10T13:00:02.698Z,99.90
2018-05-10T13:02:30.176Z,99.90
2018-05-10T13:04:57.671Z,99.90
2018-05-10T13:07:25.903Z,99.90
2018-05-10T13:09:59.105Z,99.90
2018-05-10T13:12:26.567Z,99.90
2018-05-10T13:14:55.677Z,99.90
2018-05-10T13:17:24.928Z,99.90
2018-05-10T13:19:52.470Z,99.90
2018-05-10T13:22:19.923Z,99.90
2018-05-10T13:24:50.157Z,99.90
2018-05-10T13:27:18.496Z,99.90
2018-05-10T13:29:46.749Z,99.90
2018-05-10T13:32:15.652Z,99.90
2018-05-10T13:34:43.870Z,99.90
2018-05-10T13:37:11.477Z,99.90
2018-05-10T13:39:42.161Z,99.90
2018-05-10T13:42:09.757Z,99.90
2018-05-10T13:44:37.225Z,99.90
2018-05-10T13:47:05.744Z,99.90
2018-05-10T13:49:34.115Z,99.90
2018-05-10T13:52:02.328Z,99.90
2018-05-10T13:54:33.573Z,99.90
2018-05-10T13:57:01.215Z,99.90
2018-05-10T13:59:33.631Z,99.90
2018-05-10T14:02:01.092Z,99.90
2018-05-10T14:04:29.651Z,99.90
2018-05-10T14:06:57.078Z,99.90
2018-05-10T14:09:24.541Z,99.90
2018-05-10T14:11:52.053Z,99.90
2018-05-10T14:14:19.537Z,99.90
2018-05-10T14:16:47.061Z,99.90
2018-05-10T14:19:14.556Z,99.90
2018-05-10T14:21:42.020Z,99.90
2018-05-10T14:24:09.919Z,99.90
2018-05-10T14:26:37.886Z,99.90
2018-05-10T14:29:05.449Z,99.90
2018-05-10T14:31:32.948Z,99.90
2018-05-10T14:34:01.182Z,99.90
2018-05-10T14:36:28.743Z,99.90
2018-05-10T14:38:57.443Z,99.90
2018-05-10T14:41:24.923Z,99.90
2018-05-10T14:43:53.217Z,99.90
2018-05-10T14:46:21.723Z,99.90
2018-05-10T14:48:49.729Z,99.90
2018-05-10T14:51:17.187Z,99.90
2018-05-10T14:53:45.370Z,99.90
2018-05-10T14:56:13.728Z,99.90
2018-05-10T14:58:41.176Z,99.90
2018-05-10T15:01:08.716Z,99.90
2018-05-10T15:03:36.202Z,99.90
2018-05-10T15:06:04.446Z,99.90
2018-05-10T15:08:33.285Z,99.90
2018-05-10T15:11:00.765Z,99.90
2018-05-10T15:13:28.257Z,99.90
2018-05-10T15:15:55.728Z,99.90
2018-05-10T15:18:23.978Z,99.90
2018-05-10T15:20:51.440Z,99.90
2018-05-10T15:23:19.904Z,99.90
2018-05-10T15:25:47.413Z,99.90
2018-05-10T15:28:14.878Z,99.90
2018-05-10T15:30:42.352Z,99.90
2018-05-10T15:33:10.501Z,99.90
2018-05-10T15:35:39.383Z,99.90
2018-05-10T15:38:06.888Z,99.90
2018-05-10T15:40:35.238Z,99.90
2018-05-10T15:43:03.905Z,99.90
2018-05-10T15:45:33.119Z,99.90
2018-05-10T15:48:00.602Z,99.90
2018-05-10T15:50:28.058Z,99.90
2018-05-10T15:52:55.508Z,99.90
2018-05-10T15:55:23.036Z,99.90
2018-05-10T15:57:50.631Z,99.90
2018-05-10T16:00:18.108Z,99.90
2018-05-10T16:02:45.608Z,99.90
2018-05-10T16:05:13.075Z,99.90
2018-05-10T16:07:42.244Z,99.90
2018-05-10T16:10:10.843Z,99.90
2018-05-10T16:12:38.318Z,99.90
2018-05-10T16:15:06.200Z,99.90
2018-05-10T16:17:33.738Z,99.90
2018-05-10T16:20:01.191Z,99.90
2018-05-10T16:22:29.342Z,99.90
2018-05-10T16:24:56.811Z,99.90
2018-05-10T16:27:24.265Z,99.90
2018-05-10T16:29:54.856Z,99.90
2018-05-10T16:32:22.317Z,99.90
2018-05-10T16:34:50.176Z,99.90
2018-05-10T16:37:17.666Z,99.90
2018-05-10T16:39:45.378Z,99.90
2018-05-10T16:42:12.867Z,99.90
2018-05-10T16:44:45.631Z,99.90
2018-05-10T16:47:13.088Z,99.90
2018-05-10T16:49:40.552Z,99.90
2018-05-10T16:52:08.025Z,99.90
2018-05-10T16:54:36.297Z,99.90
2018-05-10T16:57:05.470Z,99.90
2018-05-10T16:59:37.232Z,99.90
2018-05-10T17:02:05.327Z,99.90
2018-05-10T17:04:33.587Z,99.90
2018-05-10T17:07:03.399Z,99.90
2018-05-10T17:09:31.701Z,99.90
2018-05-10T17:12:01.577Z,99.90
2018-05-10T17:14:32.013Z,99.90
2018-05-10T17:17:00.318Z,99.90
2018-05-10T17:19:27.813Z,99.90
2018-05-10T17:21:56.136Z,99.90
2018-05-10T17:24:26.393Z,99.90
2018-05-10T17:26:53.860Z,99.90
2018-05-10T17:29:25.884Z,99.90
2018-05-10T17:31:53.344Z,99.90
2018-05-10T17:34:20.850Z,99.90
2018-05-10T17:36:48.353Z,99.90
2018-05-10T17:39:16.404Z,99.90
2018-05-10T17:41:46.901Z,99.90
2018-05-10T17:44:18.257Z,99.90
2018-05-10T17:46:45.742Z,99.90
2018-05-10T17:49:13.223Z,99.90
2018-05-10T17:51:41.658Z,99.90
2018-05-10T17:54:10.512Z,99.90
2018-05-10T17:56:37.996Z,99.90
2018-05-10T17:59:06.162Z,99.90
2018-05-10T18:01:35.251Z,99.90
2018-05-10T18:04:02.720Z,99.90
2018-05-10T18:06:30.185Z,99.90
2018-05-10T18:08:57.698Z,99.90
2018-05-10T18:11:25.174Z,99.90
2018-05-10T18:13:56.049Z,99.90
2018-05-10T18:16:23.473Z,99.90
2018-05-10T18:18:50.952Z,99.90
2018-05-10T18:21:20.755Z,99.90
2018-05-10T18:23:50.148Z,99.90
2018-05-10T18:26:18.108Z,99.90
2018-05-10T18:28:46.393Z,99.90
2018-05-10T18:31:14.506Z,99.90
2018-05-10T18:33:42.047Z,99.90
2018-05-10T18:36:09.595Z,99.90
2018-05-10T18:38:38.011Z,99.90
2018-05-10T18:41:06.589Z,99.90
2018-05-10T18:43:34.205Z,99.90
2018-05-10T18:46:01.669Z,99.90
2018-05-10T18:48:29.585Z,99.90
2018-05-10T18:50:58.754Z,99.90
2018-05-10T18:53:26.256Z,99.90
2018-05-10T18:55:54.509Z,99.90
2018-05-10T18:58:22.596Z,99.90
2018-05-10T19:00:50.069Z,99.90
2018-05-10T19:03:18.195Z,99.90
2018-05-10T19:05:48.569Z,99.90
2018-05-10T19:08:16.091Z,99.90
2018-05-10T19:10:43.609Z,99.90
2018-05-10T19:13:15.678Z,99.90
2018-05-10T19:15:47.684Z,99.90
2018-05-10T19:18:15.513Z,99.90
2018-05-10T19:20:43.669Z,99.90
2018-05-10T19:23:11.144Z,99.90
2018-05-10T19:25:38.662Z,99.90
2018-05-10T19:28:06.146Z,99.90
2018-05-10T19:30:33.597Z,99.90
2018-05-10T19:33:02.824Z,99.90
2018-05-10T19:35:30.274Z,99.90
2018-05-10T19:37:57.747Z,99.90
2018-05-10T19:40:25.256Z,99.90
2018-05-10T19:42:53.481Z,99.90
2018-05-10T19:45:25.273Z,99.90
2018-05-10T19:47:52.736Z,99.90
2018-05-10T19:50:21.036Z,99.90
2018-05-10T19:52:48.631Z,99.90
2018-05-10T19:55:16.091Z,99.90
2018-05-10T19:57:43.588Z,99.90
2018-05-10T20:00:12.006Z,99.90
2018-05-10T20:02:39.563Z,99.90
2018-05-10T20:05:07.221Z,99.90
2018-05-10T20:07:36.656Z,99.90
2018-05-10T20:10:06.559Z,99.90
2018-05-10T20:12:35.578Z,99.90
2018-05-10T20:15:03.101Z,99.90
2018-05-10T20:17:30.562Z,99.90
2018-05-10T20:19:58.058Z,99.90
2018-05-10T20:22:25.533Z,99.90
2018-05-10T20:24:53.822Z,99.90
2018-05-10T20:27:21.779Z,99.90
2018-05-10T20:29:50.115Z,99.90
2018-05-10T20:32:17.724Z,99.90
2018-05-10T20:34:45.125Z,99.90
2018-05-10T20:37:12.639Z,99.90
2018-05-10T20:39:41.756Z,99.90
2018-05-10T20:42:09.218Z,99.90
2018-05-10T20:44:36.790Z,99.90
2018-05-10T20:47:04.407Z,99.90
2018-05-10T20:49:33.571Z,99.90
2018-05-10T20:52:01.038Z,99.90
2018-05-10T20:54:28.520Z,99.90
2018-05-10T20:56:56.012Z,99.90
2018-05-10T20:59:24.076Z,99.90
2018-05-10T21:01:55.936Z,99.90
2018-05-10T21:04:23.447Z,99.90
2018-05-10T21:06:50.904Z,99.90
2018-05-10T21:09:19.176Z,99.90
2018-05-10T21:11:46.638Z,99.90
2018-05-10T21:14:14.131Z,99.90
2018-05-10T21:16:42.532Z,99.90
2018-05-10T21:19:13.876Z,99.90
2018-05-10T21:21:41.430Z,99.90
2018-05-10T21:24:09.031Z,99.90
2018-05-10T21:26:37.408Z,99.90
2018-05-10T21:29:04.879Z,99.90
2018-05-10T21:31:32.364Z,99.90
2018-05-10T21:33:59.936Z,99.90
2018-05-10T21:36:27.329Z,99.90
2018-05-10T21:38:56.004Z,99.90
2018-05-10T21:41:23.468Z,99.90
2018-05-10T21:43:51.741Z,99.90
2018-05-10T21:46:19.225Z,99.90
2018-05-10T21:48:47.508Z,99.90
2018-05-10T21:51:16.704Z,99.90
2018-05-10T21:53:44.233Z,99.90
2018-05-10T21:56:11.719Z,99.90
2018-05-10T21:58:39.171Z,99.90
2018-05-10T22:01:06.634Z,99.90
2018-05-10T22:03:34.832Z,99.90
2018-05-10T22:06:03.026Z,99.90
2018-05-10T22:08:30.583Z,99.90
2018-05-10T22:10:58.080Z,99.90
2018-05-10T22:13:25.587Z,99.90
2018-05-10T22:15:54.456Z,99.90
2018-05-10T22:18:33.654Z,99.90
2018-05-10T22:21:01.040Z,99.90
2018-05-10T22:23:28.549Z,99.90
2018-05-10T22:25:56.032Z,99.90
2018-05-10T22:28:23.508Z,99.90
2018-05-10T22:30:50.994Z,99.90
2018-05-10T22:33:29.991Z,99.90
2018-05-10T22:35:57.496Z,99.90
2018-05-10T22:38:25.264Z,99.90
2018-05-10T22:40:52.741Z,99.90
2018-05-10T22:43:20.844Z,99.90
2018-05-10T22:45:48.349Z,99.90
2018-05-10T22:48:16.548Z,99.90
2018-05-10T22:50:44.011Z,99.90
2018-05-10T22:53:11.961Z,99.90
2018-05-10T22:55:39.889Z,99.90
2018-05-10T22:58:08.157Z,99.90
2018-05-10T23:00:35.678Z,99.90
2018-05-10T23:03:03.145Z,99.90
2018-05-10T23:05:32.141Z,99.90
2018-05-10T23:07:59.626Z,99.90
2018-05-10T23:10:27.152Z,99.90
2018-05-10T23:12:55.271Z,99.90
2018-05-10T23:15:24.804Z,99.90
2018-05-10T23:17:52.309Z,99.90
2018-05-10T23:20:19.780Z,99.90
2018-05-10T23:22:49.021Z,99.90
2018-05-10T23:25:16.530Z,99.90
2018-05-10T23:27:44.785Z,99.90
2018-05-10T23:30:13.201Z,99.90
2018-05-10T23:32:41.811Z,99.90
2018-05-10T23:35:12.669Z,99.90
2018-05-10T23:37:40.132Z,99.90
2018-05-10T23:40:08.279Z,99.90
2018-05-10T23:42:35.749Z,99.90
2018-05-10T23:45:03.246Z,99.90
2018-05-10T23:47:31.041Z,99.90
2018-05-10T23:50:02.952Z,99.90
2018-05-10T23:52:30.457Z,99.90
2018-05-10T23:54:57.962Z,99.90
2018-05-10T23:57:25.452Z,99.90
2018-05-10T23:59:52.933Z,99.90
